sensor_id;sensor_type;location;lat;lon;timestamp;P1;durP1;ratioP1;P2;durP2;ratioP2
10596;SDS011;5346;48.766;8.674;2022-07-21T00:01:12;17.55;;;14.07;;
10596;SDS011;5346;48.766;8.674;2022-07-21T00:03:48;15.93;;;13.38;;
10596;SDS011;5346;48.766;8.674;2022-07-21T00:06:16;15.23;;;13.18;;
10596;SDS011;5346;48.766;8.674;2022-07-21T00:08:45;15.73;;;12.88;;
10596;SDS011;5346;48.766;8.674;2022-07-21T00:11:21;16.52;;;13.57;;
10596;SDS011;5346;48.766;8.674;2022-07-21T00:13:48;14.93;;;13.13;;
10596;SDS011;5346;48.766;8.674;2022-07-21T00:16:16;15.32;;;12.63;;
10596;SDS011;5346;48.766;8.674;2022-07-21T00:18:51;17.42;;;13.50;;
10596;SDS011;5346;48.766;8.674;2022-07-21T00:21:19;14.65;;;12.23;;
10596;SDS011;5346;48.766;8.674;2022-07-21T00:23:47;14.45;;;12.77;;
10596;SDS011;5346;48.766;8.674;2022-07-21T00:26:23;14.43;;;12.93;;
10596;SDS011;5346;48.766;8.674;2022-07-21T00:28:52;19.55;;;13.75;;
10596;SDS011;5346;48.766;8.674;2022-07-21T00:31:21;17.00;;;13.82;;
10596;SDS011;5346;48.766;8.674;2022-07-21T00:33:55;15.80;;;14.10;;
10596;SDS011;5346;48.766;8.674;2022-07-21T00:36:22;16.25;;;13.52;;
10596;SDS011;5346;48.766;8.674;2022-07-21T00:38:50;15.30;;;13.80;;
10596;SDS011;5346;48.766;8.674;2022-07-21T00:41:25;17.27;;;13.85;;
10596;SDS011;5346;48.766;8.674;2022-07-21T00:43:54;17.58;;;12.63;;
10596;SDS011;5346;48.766;8.674;2022-07-21T00:46:22;15.43;;;12.85;;
10596;SDS011;5346;48.766;8.674;2022-07-21T00:48:58;16.58;;;12.52;;
10596;SDS011;5346;48.766;8.674;2022-07-21T00:51:25;15.35;;;13.38;;
10596;SDS011;5346;48.766;8.674;2022-07-21T00:53:53;16.13;;;12.98;;
10596;SDS011;5346;48.766;8.674;2022-07-21T00:56:28;13.52;;;12.23;;
10596;SDS011;5346;48.766;8.674;2022-07-21T00:59:10;14.73;;;12.38;;
10596;SDS011;5346;48.766;8.674;2022-07-21T01:01:47;17.45;;;12.90;;
10596;SDS011;5346;48.766;8.674;2022-07-21T01:04:15;13.75;;;12.02;;
10596;SDS011;5346;48.766;8.674;2022-07-21T01:06:42;15.57;;;12.07;;
10596;SDS011;5346;48.766;8.674;2022-07-21T01:09:16;14.05;;;12.55;;
10596;SDS011;5346;48.766;8.674;2022-07-21T01:11:44;14.50;;;11.85;;
10596;SDS011;5346;48.766;8.674;2022-07-21T01:14:13;13.75;;;12.27;;
10596;SDS011;5346;48.766;8.674;2022-07-21T01:16:48;11.43;;;10.23;;
10596;SDS011;5346;48.766;8.674;2022-07-21T01:19:16;11.25;;;9.85;;
10596;SDS011;5346;48.766;8.674;2022-07-21T01:21:45;10.23;;;9.10;;
10596;SDS011;5346;48.766;8.674;2022-07-21T01:24:19;13.60;;;9.10;;
10596;SDS011;5346;48.766;8.674;2022-07-21T01:26:48;11.23;;;9.90;;
10596;SDS011;5346;48.766;8.674;2022-07-21T01:29:19;10.73;;;9.73;;
10596;SDS011;5346;48.766;8.674;2022-07-21T01:31:53;10.75;;;9.75;;
10596;SDS011;5346;48.766;8.674;2022-07-21T01:34:21;10.75;;;9.80;;
10596;SDS011;5346;48.766;8.674;2022-07-21T01:36:49;12.45;;;9.73;;
10596;SDS011;5346;48.766;8.674;2022-07-21T01:39:24;10.27;;;9.25;;
10596;SDS011;5346;48.766;8.674;2022-07-21T01:42:09;11.95;;;8.88;;
10596;SDS011;5346;48.766;8.674;2022-07-21T01:44:44;9.40;;;8.45;;
10596;SDS011;5346;48.766;8.674;2022-07-21T01:47:11;9.43;;;8.50;;
10596;SDS011;5346;48.766;8.674;2022-07-21T01:49:39;9.55;;;8.60;;
10596;SDS011;5346;48.766;8.674;2022-07-21T01:52:13;9.80;;;8.82;;
10596;SDS011;5346;48.766;8.674;2022-07-21T01:54:40;10.75;;;9.52;;
10596;SDS011;5346;48.766;8.674;2022-07-21T01:57:08;9.77;;;8.73;;
10596;SDS011;5346;48.766;8.674;2022-07-21T01:59:42;9.77;;;8.77;;
10596;SDS011;5346;48.766;8.674;2022-07-21T02:02:09;10.52;;;8.48;;
10596;SDS011;5346;48.766;8.674;2022-07-21T02:04:37;9.25;;;8.38;;
10596;SDS011;5346;48.766;8.674;2022-07-21T02:07:18;9.00;;;8.18;;
10596;SDS011;5346;48.766;8.674;2022-07-21T02:09:45;9.70;;;8.73;;
10596;SDS011;5346;48.766;8.674;2022-07-21T02:12:15;10.68;;;8.77;;
10596;SDS011;5346;48.766;8.674;2022-07-21T02:14:50;9.95;;;9.05;;
10596;SDS011;5346;48.766;8.674;2022-07-21T02:17:17;10.30;;;9.02;;
10596;SDS011;5346;48.766;8.674;2022-07-21T02:19:45;9.98;;;8.40;;
10596;SDS011;5346;48.766;8.674;2022-07-21T02:22:18;11.40;;;9.18;;
10596;SDS011;5346;48.766;8.674;2022-07-21T02:24:46;9.98;;;9.07;;
10596;SDS011;5346;48.766;8.674;2022-07-21T02:27:13;8.93;;;7.95;;
10596;SDS011;5346;48.766;8.674;2022-07-21T02:29:48;9.73;;;8.82;;
10596;SDS011;5346;48.766;8.674;2022-07-21T02:32:15;10.95;;;8.70;;
10596;SDS011;5346;48.766;8.674;2022-07-21T02:34:43;9.65;;;8.77;;
10596;SDS011;5346;48.766;8.674;2022-07-21T02:37:16;10.40;;;8.65;;
10596;SDS011;5346;48.766;8.674;2022-07-21T02:39:44;9.75;;;8.50;;
10596;SDS011;5346;48.766;8.674;2022-07-21T02:42:13;11.80;;;10.45;;
10596;SDS011;5346;48.766;8.674;2022-07-21T02:44:48;10.25;;;9.20;;
10596;SDS011;5346;48.766;8.674;2022-07-21T02:47:15;13.23;;;9.90;;
10596;SDS011;5346;48.766;8.674;2022-07-21T02:49:43;11.25;;;10.07;;
10596;SDS011;5346;48.766;8.674;2022-07-21T02:52:17;11.02;;;9.93;;
10596;SDS011;5346;48.766;8.674;2022-07-21T02:54:47;10.02;;;9.13;;
10596;SDS011;5346;48.766;8.674;2022-07-21T02:57:14;10.77;;;9.68;;
10596;SDS011;5346;48.766;8.674;2022-07-21T02:59:55;11.70;;;9.50;;
10596;SDS011;5346;48.766;8.674;2022-07-21T03:02:23;11.18;;;10.15;;
10596;SDS011;5346;48.766;8.674;2022-07-21T03:04:57;11.32;;;10.23;;
10596;SDS011;5346;48.766;8.674;2022-07-21T03:07:24;11.10;;;9.98;;
10596;SDS011;5346;48.766;8.674;2022-07-21T03:09:52;11.65;;;10.63;;
10596;SDS011;5346;48.766;8.674;2022-07-21T03:12:25;11.30;;;10.15;;
10596;SDS011;5346;48.766;8.674;2022-07-21T03:14:53;12.75;;;11.35;;
10596;SDS011;5346;48.766;8.674;2022-07-21T03:17:21;13.73;;;11.73;;
10596;SDS011;5346;48.766;8.674;2022-07-21T03:19:58;14.30;;;11.60;;
10596;SDS011;5346;48.766;8.674;2022-07-21T03:22:26;13.88;;;11.70;;
10596;SDS011;5346;48.766;8.674;2022-07-21T03:24:53;12.45;;;10.70;;
10596;SDS011;5346;48.766;8.674;2022-07-21T03:27:28;13.90;;;12.35;;
10596;SDS011;5346;48.766;8.674;2022-07-21T03:29:55;14.07;;;12.07;;
10596;SDS011;5346;48.766;8.674;2022-07-21T03:32:23;13.68;;;11.48;;
10596;SDS011;5346;48.766;8.674;2022-07-21T03:34:57;13.65;;;12.25;;
10596;SDS011;5346;48.766;8.674;2022-07-21T03:37:24;13.60;;;11.10;;
10596;SDS011;5346;48.766;8.674;2022-07-21T03:39:52;15.38;;;11.30;;
10596;SDS011;5346;48.766;8.674;2022-07-21T03:42:27;13.18;;;11.15;;
10596;SDS011;5346;48.766;8.674;2022-07-21T03:44:54;13.88;;;11.73;;
10596;SDS011;5346;48.766;8.674;2022-07-21T03:47:22;13.73;;;12.02;;
10596;SDS011;5346;48.766;8.674;2022-07-21T03:49:56;16.60;;;13.20;;
10596;SDS011;5346;48.766;8.674;2022-07-21T03:52:23;13.50;;;11.98;;
10596;SDS011;5346;48.766;8.674;2022-07-21T03:54:51;17.55;;;12.68;;
10596;SDS011;5346;48.766;8.674;2022-07-21T03:57:43;15.68;;;12.45;;
10596;SDS011;5346;48.766;8.674;2022-07-21T04:00:20;14.57;;;12.98;;
10596;SDS011;5346;48.766;8.674;2022-07-21T04:03:05;13.80;;;12.48;;
10596;SDS011;5346;48.766;8.674;2022-07-21T04:05:34;15.73;;;12.60;;
10596;SDS011;5346;48.766;8.674;2022-07-21T04:08:02;14.38;;;12.88;;
10596;SDS011;5346;48.766;8.674;2022-07-21T04:10:38;14.60;;;13.10;;
10596;SDS011;5346;48.766;8.674;2022-07-21T04:13:07;14.90;;;13.45;;
10596;SDS011;5346;48.766;8.674;2022-07-21T04:15:37;14.35;;;13.00;;
10596;SDS011;5346;48.766;8.674;2022-07-21T04:18:12;14.32;;;12.93;;
10596;SDS011;5346;48.766;8.674;2022-07-21T04:20:39;15.20;;;13.60;;
10596;SDS011;5346;48.766;8.674;2022-07-21T04:23:07;13.63;;;12.20;;
10596;SDS011;5346;48.766;8.674;2022-07-21T04:25:41;14.55;;;13.07;;
10596;SDS011;5346;48.766;8.674;2022-07-21T04:28:09;14.48;;;12.52;;
10596;SDS011;5346;48.766;8.674;2022-07-21T04:30:37;13.10;;;11.85;;
10596;SDS011;5346;48.766;8.674;2022-07-21T04:33:12;14.15;;;12.68;;
10596;SDS011;5346;48.766;8.674;2022-07-21T04:35:39;14.00;;;11.90;;
10596;SDS011;5346;48.766;8.674;2022-07-21T04:38:08;14.25;;;12.95;;
10596;SDS011;5346;48.766;8.674;2022-07-21T04:40:43;13.13;;;11.48;;
10596;SDS011;5346;48.766;8.674;2022-07-21T04:43:10;12.35;;;11.13;;
10596;SDS011;5346;48.766;8.674;2022-07-21T04:45:38;14.10;;;11.68;;
10596;SDS011;5346;48.766;8.674;2022-07-21T04:48:13;11.98;;;10.77;;
10596;SDS011;5346;48.766;8.674;2022-07-21T04:50:40;14.45;;;11.63;;
10596;SDS011;5346;48.766;8.674;2022-07-21T04:53:08;14.73;;;11.98;;
10596;SDS011;5346;48.766;8.674;2022-07-21T04:55:49;12.73;;;11.43;;
10596;SDS011;5346;48.766;8.674;2022-07-21T04:58:30;13.50;;;11.77;;
10596;SDS011;5346;48.766;8.674;2022-07-21T05:01:05;11.70;;;10.57;;
10596;SDS011;5346;48.766;8.674;2022-07-21T05:03:32;12.10;;;10.73;;
10596;SDS011;5346;48.766;8.674;2022-07-21T05:06:00;12.23;;;11.02;;
10596;SDS011;5346;48.766;8.674;2022-07-21T05:08:34;12.77;;;10.68;;
10596;SDS011;5346;48.766;8.674;2022-07-21T05:11:03;11.27;;;10.20;;
10596;SDS011;5346;48.766;8.674;2022-07-21T05:13:30;12.70;;;10.55;;
10596;SDS011;5346;48.766;8.674;2022-07-21T05:16:05;11.73;;;10.63;;
10596;SDS011;5346;48.766;8.674;2022-07-21T05:18:32;10.52;;;9.20;;
10596;SDS011;5346;48.766;8.674;2022-07-21T05:21:00;10.50;;;9.50;;
10596;SDS011;5346;48.766;8.674;2022-07-21T05:23:36;11.70;;;10.50;;
10596;SDS011;5346;48.766;8.674;2022-07-21T05:26:04;11.48;;;9.88;;
10596;SDS011;5346;48.766;8.674;2022-07-21T05:28:32;10.88;;;9.77;;
10596;SDS011;5346;48.766;8.674;2022-07-21T05:31:06;12.10;;;10.20;;
10596;SDS011;5346;48.766;8.674;2022-07-21T05:33:34;12.02;;;10.15;;
10596;SDS011;5346;48.766;8.674;2022-07-21T05:36:03;11.60;;;9.07;;
10596;SDS011;5346;48.766;8.674;2022-07-21T05:38:38;10.52;;;9.00;;
10596;SDS011;5346;48.766;8.674;2022-07-21T05:41:21;9.20;;;8.40;;
10596;SDS011;5346;48.766;8.674;2022-07-21T05:43:56;10.00;;;9.00;;
10596;SDS011;5346;48.766;8.674;2022-07-21T05:46:30;9.45;;;8.50;;
10596;SDS011;5346;48.766;8.674;2022-07-21T05:49:04;12.70;;;8.75;;
10596;SDS011;5346;48.766;8.674;2022-07-21T05:51:31;10.60;;;8.70;;
10596;SDS011;5346;48.766;8.674;2022-07-21T05:53:59;7.97;;;7.28;;
10596;SDS011;5346;48.766;8.674;2022-07-21T05:56:39;8.93;;;7.72;;
10596;SDS011;5346;48.766;8.674;2022-07-21T05:59:07;10.40;;;7.55;;
10596;SDS011;5346;48.766;8.674;2022-07-21T06:01:41;9.38;;;7.63;;
10596;SDS011;5346;48.766;8.674;2022-07-21T06:04:08;7.43;;;6.72;;
10596;SDS011;5346;48.766;8.674;2022-07-21T06:06:36;11.18;;;7.90;;
10596;SDS011;5346;48.766;8.674;2022-07-21T06:09:09;12.75;;;7.93;;
10596;SDS011;5346;48.766;8.674;2022-07-21T06:11:37;8.27;;;7.10;;
10596;SDS011;5346;48.766;8.674;2022-07-21T06:14:04;9.88;;;7.95;;
10596;SDS011;5346;48.766;8.674;2022-07-21T06:16:39;8.77;;;7.85;;
10596;SDS011;5346;48.766;8.674;2022-07-21T06:19:06;8.05;;;7.25;;
10596;SDS011;5346;48.766;8.674;2022-07-21T06:21:34;8.73;;;7.60;;
10596;SDS011;5346;48.766;8.674;2022-07-21T06:24:12;7.75;;;7.03;;
10596;SDS011;5346;48.766;8.674;2022-07-21T06:26:40;7.90;;;7.10;;
10596;SDS011;5346;48.766;8.674;2022-07-21T06:29:08;8.40;;;7.00;;
10596;SDS011;5346;48.766;8.674;2022-07-21T06:31:42;9.13;;;7.03;;
10596;SDS011;5346;48.766;8.674;2022-07-21T06:34:09;8.80;;;6.75;;
10596;SDS011;5346;48.766;8.674;2022-07-21T06:36:37;8.55;;;6.95;;
10596;SDS011;5346;48.766;8.674;2022-07-21T06:39:11;8.60;;;7.13;;
10596;SDS011;5346;48.766;8.674;2022-07-21T06:41:39;7.93;;;6.82;;
10596;SDS011;5346;48.766;8.674;2022-07-21T06:44:06;7.13;;;6.43;;
10596;SDS011;5346;48.766;8.674;2022-07-21T06:46:41;10.27;;;6.65;;
10596;SDS011;5346;48.766;8.674;2022-07-21T06:49:08;8.10;;;6.47;;
10596;SDS011;5346;48.766;8.674;2022-07-21T06:51:36;6.82;;;5.88;;
10596;SDS011;5346;48.766;8.674;2022-07-21T06:54:10;9.38;;;7.00;;
10596;SDS011;5346;48.766;8.674;2022-07-21T06:56:37;7.05;;;6.25;;
10596;SDS011;5346;48.766;8.674;2022-07-21T06:59:25;7.53;;;6.15;;
10596;SDS011;5346;48.766;8.674;2022-07-21T07:01:53;8.82;;;6.07;;
10596;SDS011;5346;48.766;8.674;2022-07-21T07:04:29;6.60;;;5.97;;
10596;SDS011;5346;48.766;8.674;2022-07-21T07:06:57;7.43;;;6.10;;
10596;SDS011;5346;48.766;8.674;2022-07-21T07:09:24;7.88;;;5.75;;
10596;SDS011;5346;48.766;8.674;2022-07-21T07:11:59;7.47;;;6.40;;
10596;SDS011;5346;48.766;8.674;2022-07-21T07:14:54;6.00;;;5.40;;
10596;SDS011;5346;48.766;8.674;2022-07-21T07:17:29;8.93;;;5.45;;
10596;SDS011;5346;48.766;8.674;2022-07-21T07:19:57;4.93;;;4.43;;
10596;SDS011;5346;48.766;8.674;2022-07-21T07:22:25;7.07;;;5.30;;
10596;SDS011;5346;48.766;8.674;2022-07-21T07:24:59;4.80;;;4.40;;
10596;SDS011;5346;48.766;8.674;2022-07-21T07:27:27;8.68;;;4.15;;
10596;SDS011;5346;48.766;8.674;2022-07-21T07:29:59;4.30;;;3.85;;
10596;SDS011;5346;48.766;8.674;2022-07-21T07:32:35;5.18;;;4.70;;
10596;SDS011;5346;48.766;8.674;2022-07-21T07:35:03;4.80;;;4.25;;
10596;SDS011;5346;48.766;8.674;2022-07-21T07:37:32;6.22;;;4.22;;
10596;SDS011;5346;48.766;8.674;2022-07-21T07:40:09;5.75;;;4.45;;
10596;SDS011;5346;48.766;8.674;2022-07-21T07:42:41;5.55;;;4.15;;
10596;SDS011;5346;48.766;8.674;2022-07-21T07:45:16;5.45;;;4.03;;
10596;SDS011;5346;48.766;8.674;2022-07-21T07:47:44;6.00;;;4.50;;
10596;SDS011;5346;48.766;8.674;2022-07-21T07:50:12;8.90;;;4.10;;
10596;SDS011;5346;48.766;8.674;2022-07-21T07:52:47;5.95;;;4.32;;
10596;SDS011;5346;48.766;8.674;2022-07-21T07:55:14;6.00;;;4.30;;
10596;SDS011;5346;48.766;8.674;2022-07-21T07:57:42;6.15;;;4.22;;
10596;SDS011;5346;48.766;8.674;2022-07-21T08:00:17;8.68;;;3.80;;
10596;SDS011;5346;48.766;8.674;2022-07-21T08:03:06;3.90;;;3.53;;
10596;SDS011;5346;48.766;8.674;2022-07-21T08:05:40;4.18;;;3.70;;
10596;SDS011;5346;48.766;8.674;2022-07-21T08:08:07;3.70;;;3.40;;
10596;SDS011;5346;48.766;8.674;2022-07-21T08:10:35;4.68;;;3.60;;
10596;SDS011;5346;48.766;8.674;2022-07-21T08:13:11;6.00;;;3.90;;
10596;SDS011;5346;48.766;8.674;2022-07-21T08:15:40;3.88;;;3.47;;
10596;SDS011;5346;48.766;8.674;2022-07-21T08:18:09;4.18;;;3.47;;
10596;SDS011;5346;48.766;8.674;2022-07-21T08:20:43;4.40;;;3.60;;
10596;SDS011;5346;48.766;8.674;2022-07-21T08:23:12;4.47;;;3.92;;
10596;SDS011;5346;48.766;8.674;2022-07-21T08:25:42;5.85;;;3.45;;
10596;SDS011;5346;48.766;8.674;2022-07-21T08:28:16;3.78;;;3.42;;
10596;SDS011;5346;48.766;8.674;2022-07-21T08:30:43;3.55;;;3.10;;
10596;SDS011;5346;48.766;8.674;2022-07-21T08:33:11;3.72;;;3.42;;
10596;SDS011;5346;48.766;8.674;2022-07-21T08:35:45;5.22;;;3.80;;
10596;SDS011;5346;48.766;8.674;2022-07-21T08:38:12;4.45;;;3.58;;
10596;SDS011;5346;48.766;8.674;2022-07-21T08:40:41;3.78;;;3.20;;
10596;SDS011;5346;48.766;8.674;2022-07-21T08:43:24;6.35;;;3.47;;
10596;SDS011;5346;48.766;8.674;2022-07-21T08:45:53;3.40;;;3.00;;
10596;SDS011;5346;48.766;8.674;2022-07-21T08:48:29;3.95;;;3.35;;
10596;SDS011;5346;48.766;8.674;2022-07-21T08:50:57;9.52;;;3.90;;
10596;SDS011;5346;48.766;8.674;2022-07-21T08:53:25;7.93;;;4.00;;
10596;SDS011;5346;48.766;8.674;2022-07-21T08:56:01;4.25;;;3.85;;
10596;SDS011;5346;48.766;8.674;2022-07-21T08:58:42;4.32;;;3.90;;
10596;SDS011;5346;48.766;8.674;2022-07-21T09:01:17;4.82;;;4.28;;
10596;SDS011;5346;48.766;8.674;2022-07-21T09:03:45;4.13;;;3.60;;
10596;SDS011;5346;48.766;8.674;2022-07-21T09:06:14;3.22;;;2.92;;
10596;SDS011;5346;48.766;8.674;2022-07-21T09:08:50;3.85;;;3.38;;
10596;SDS011;5346;48.766;8.674;2022-07-21T09:11:22;6.60;;;3.67;;
10596;SDS011;5346;48.766;8.674;2022-07-21T09:14:15;4.70;;;3.28;;
10596;SDS011;5346;48.766;8.674;2022-07-21T09:16:46;3.70;;;3.30;;
10596;SDS011;5346;48.766;8.674;2022-07-21T09:19:36;3.60;;;3.30;;
10596;SDS011;5346;48.766;8.674;2022-07-21T09:22:12;4.93;;;3.60;;
10596;SDS011;5346;48.766;8.674;2022-07-21T09:24:51;5.40;;;3.72;;
10596;SDS011;5346;48.766;8.674;2022-07-21T09:29:53;4.20;;;3.33;;
10596;SDS011;5346;48.766;8.674;2022-07-21T09:32:33;4.60;;;3.58;;
10596;SDS011;5346;48.766;8.674;2022-07-21T09:35:03;6.40;;;3.50;;
10596;SDS011;5346;48.766;8.674;2022-07-21T09:37:48;4.45;;;3.65;;
10596;SDS011;5346;48.766;8.674;2022-07-21T09:40:15;4.05;;;3.47;;
10596;SDS011;5346;48.766;8.674;2022-07-21T09:42:48;4.03;;;3.35;;
10596;SDS011;5346;48.766;8.674;2022-07-21T09:45:25;5.15;;;3.90;;
10596;SDS011;5346;48.766;8.674;2022-07-21T09:47:52;5.75;;;3.88;;
10596;SDS011;5346;48.766;8.674;2022-07-21T09:50:20;5.00;;;3.70;;
10596;SDS011;5346;48.766;8.674;2022-07-21T09:52:56;3.75;;;3.45;;
10596;SDS011;5346;48.766;8.674;2022-07-21T09:55:24;3.63;;;3.40;;
10596;SDS011;5346;48.766;8.674;2022-07-21T09:57:52;6.72;;;3.85;;
10596;SDS011;5346;48.766;8.674;2022-07-21T10:00:31;4.53;;;3.78;;
10596;SDS011;5346;48.766;8.674;2022-07-21T10:03:06;4.55;;;3.63;;
10596;SDS011;5346;48.766;8.674;2022-07-21T10:05:41;4.32;;;3.90;;
10596;SDS011;5346;48.766;8.674;2022-07-21T10:08:09;5.50;;;4.03;;
10596;SDS011;5346;48.766;8.674;2022-07-21T10:10:40;4.07;;;3.67;;
10596;SDS011;5346;48.766;8.674;2022-07-21T10:13:34;4.95;;;3.42;;
10596;SDS011;5346;48.766;8.674;2022-07-21T10:16:04;5.68;;;4.05;;
10596;SDS011;5346;48.766;8.674;2022-07-21T10:18:47;7.80;;;4.05;;
10596;SDS011;5346;48.766;8.674;2022-07-21T10:24:02;4.25;;;3.42;;
10596;SDS011;5346;48.766;8.674;2022-07-21T10:26:35;4.10;;;3.63;;
10596;SDS011;5346;48.766;8.674;2022-07-21T10:29:03;6.82;;;4.00;;
10596;SDS011;5346;48.766;8.674;2022-07-21T10:31:41;3.95;;;3.22;;
10596;SDS011;5346;48.766;8.674;2022-07-21T10:34:10;4.00;;;3.47;;
10596;SDS011;5346;48.766;8.674;2022-07-21T10:36:38;5.68;;;4.05;;
10596;SDS011;5346;48.766;8.674;2022-07-21T10:39:17;5.18;;;3.72;;
10596;SDS011;5346;48.766;8.674;2022-07-21T10:41:50;4.60;;;3.60;;
10596;SDS011;5346;48.766;8.674;2022-07-21T10:47:04;5.20;;;3.80;;
10596;SDS011;5346;48.766;8.674;2022-07-21T10:49:42;5.38;;;4.20;;
10596;SDS011;5346;48.766;8.674;2022-07-21T10:55:13;4.40;;;4.00;;
10596;SDS011;5346;48.766;8.674;2022-07-21T10:58:17;4.10;;;3.72;;
10596;SDS011;5346;48.766;8.674;2022-07-21T11:01:18;5.18;;;4.38;;
10596;SDS011;5346;48.766;8.674;2022-07-21T11:04:08;5.03;;;3.80;;
10596;SDS011;5346;48.766;8.674;2022-07-21T11:06:44;5.55;;;4.15;;
10596;SDS011;5346;48.766;8.674;2022-07-21T11:09:14;4.70;;;4.30;;
10596;SDS011;5346;48.766;8.674;2022-07-21T11:14:36;4.72;;;4.10;;
10596;SDS011;5346;48.766;8.674;2022-07-21T11:17:51;5.22;;;4.72;;
10596;SDS011;5346;48.766;8.674;2022-07-21T11:20:12;5.10;;;4.35;;
10596;SDS011;5346;48.766;8.674;2022-07-21T11:22:41;5.00;;;4.47;;
10596;SDS011;5346;48.766;8.674;2022-07-21T11:25:24;6.18;;;4.68;;
10596;SDS011;5346;48.766;8.674;2022-07-21T11:27:54;6.03;;;4.65;;
10596;SDS011;5346;48.766;8.674;2022-07-21T11:30:22;6.72;;;4.70;;
10596;SDS011;5346;48.766;8.674;2022-07-21T11:32:56;4.90;;;3.97;;
10596;SDS011;5346;48.766;8.674;2022-07-21T11:35:25;5.35;;;4.18;;
10596;SDS011;5346;48.766;8.674;2022-07-21T11:37:52;6.07;;;4.85;;
10596;SDS011;5346;48.766;8.674;2022-07-21T11:40:27;6.72;;;4.70;;
10596;SDS011;5346;48.766;8.674;2022-07-21T11:42:55;4.47;;;4.07;;
10596;SDS011;5346;48.766;8.674;2022-07-21T11:45:23;6.47;;;4.75;;
10596;SDS011;5346;48.766;8.674;2022-07-21T11:47:59;11.23;;;4.70;;
10596;SDS011;5346;48.766;8.674;2022-07-21T11:50:26;5.90;;;4.90;;
10596;SDS011;5346;48.766;8.674;2022-07-21T11:52:55;5.68;;;5.10;;
10596;SDS011;5346;48.766;8.674;2022-07-21T11:55:32;5.53;;;4.90;;
10596;SDS011;5346;48.766;8.674;2022-07-21T11:58:01;7.72;;;5.18;;
10596;SDS011;5346;48.766;8.674;2022-07-21T12:00:41;4.70;;;4.30;;
10596;SDS011;5346;48.766;8.674;2022-07-21T12:03:09;4.90;;;4.50;;
10596;SDS011;5346;48.766;8.674;2022-07-21T12:05:37;5.22;;;4.60;;
10596;SDS011;5346;48.766;8.674;2022-07-21T12:08:11;5.35;;;4.15;;
10596;SDS011;5346;48.766;8.674;2022-07-21T12:10:39;4.20;;;3.80;;
10596;SDS011;5346;48.766;8.674;2022-07-21T12:13:07;7.93;;;5.13;;
10596;SDS011;5346;48.766;8.674;2022-07-21T12:15:41;4.80;;;4.30;;
10596;SDS011;5346;48.766;8.674;2022-07-21T12:18:18;5.00;;;4.50;;
10596;SDS011;5346;48.766;8.674;2022-07-21T12:21:03;5.10;;;4.53;;
10596;SDS011;5346;48.766;8.674;2022-07-21T12:23:32;6.13;;;4.88;;
10596;SDS011;5346;48.766;8.674;2022-07-21T12:26:06;8.25;;;4.60;;
10596;SDS011;5346;48.766;8.674;2022-07-21T12:28:48;5.15;;;4.60;;
10596;SDS011;5346;48.766;8.674;2022-07-21T12:31:26;6.85;;;4.93;;
10596;SDS011;5346;48.766;8.674;2022-07-21T12:33:55;4.80;;;4.35;;
10596;SDS011;5346;48.766;8.674;2022-07-21T12:36:43;4.85;;;4.30;;
10596;SDS011;5346;48.766;8.674;2022-07-21T12:39:22;5.43;;;4.93;;
10596;SDS011;5346;48.766;8.674;2022-07-21T12:42:10;6.43;;;4.55;;
10596;SDS011;5346;48.766;8.674;2022-07-21T12:45:12;5.03;;;4.53;;
10596;SDS011;5346;48.766;8.674;2022-07-21T12:53:31;4.80;;;4.30;;
10596;SDS011;5346;48.766;8.674;2022-07-21T12:56:07;5.20;;;4.80;;
10596;SDS011;5346;48.766;8.674;2022-07-21T12:58:42;4.60;;;4.13;;
10596;SDS011;5346;48.766;8.674;2022-07-21T13:01:17;5.28;;;4.70;;
10596;SDS011;5346;48.766;8.674;2022-07-21T13:03:46;5.15;;;4.47;;
10596;SDS011;5346;48.766;8.674;2022-07-21T13:06:14;4.93;;;4.32;;
10596;SDS011;5346;48.766;8.674;2022-07-21T13:08:52;4.80;;;3.90;;
10596;SDS011;5346;48.766;8.674;2022-07-21T13:11:21;5.05;;;4.05;;
10596;SDS011;5346;48.766;8.674;2022-07-21T13:13:49;6.15;;;3.97;;
10596;SDS011;5346;48.766;8.674;2022-07-21T13:16:24;6.80;;;4.40;;
10596;SDS011;5346;48.766;8.674;2022-07-21T13:18:52;4.72;;;4.30;;
10596;SDS011;5346;48.766;8.674;2022-07-21T13:21:20;5.55;;;4.57;;
10596;SDS011;5346;48.766;8.674;2022-07-21T13:23:54;5.43;;;4.28;;
10596;SDS011;5346;48.766;8.674;2022-07-21T13:26:22;5.05;;;4.10;;
10596;SDS011;5346;48.766;8.674;2022-07-21T13:28:51;4.40;;;4.00;;
10596;SDS011;5346;48.766;8.674;2022-07-21T13:31:24;5.78;;;4.38;;
10596;SDS011;5346;48.766;8.674;2022-07-21T13:33:53;4.35;;;3.95;;
10596;SDS011;5346;48.766;8.674;2022-07-21T13:36:21;4.78;;;4.28;;
10596;SDS011;5346;48.766;8.674;2022-07-21T13:38:55;4.78;;;4.30;;
10596;SDS011;5346;48.766;8.674;2022-07-21T13:41:45;6.65;;;4.30;;
10596;SDS011;5346;48.766;8.674;2022-07-21T13:44:38;4.97;;;3.63;;
10596;SDS011;5346;48.766;8.674;2022-07-21T13:47:06;4.55;;;3.65;;
10596;SDS011;5346;48.766;8.674;2022-07-21T13:49:40;5.85;;;4.13;;
10596;SDS011;5346;48.766;8.674;2022-07-21T13:52:08;4.03;;;3.65;;
10596;SDS011;5346;48.766;8.674;2022-07-21T13:54:36;5.35;;;4.18;;
10596;SDS011;5346;48.766;8.674;2022-07-21T13:57:09;4.10;;;3.65;;
10596;SDS011;5346;48.766;8.674;2022-07-21T13:59:50;5.45;;;4.32;;
10596;SDS011;5346;48.766;8.674;2022-07-21T14:02:24;5.13;;;4.00;;
10596;SDS011;5346;48.766;8.674;2022-07-21T14:04:52;7.35;;;4.05;;
10596;SDS011;5346;48.766;8.674;2022-07-21T14:07:20;5.30;;;4.47;;
10596;SDS011;5346;48.766;8.674;2022-07-21T14:09:54;4.60;;;3.60;;
10596;SDS011;5346;48.766;8.674;2022-07-21T14:12:22;5.63;;;3.50;;
10596;SDS011;5346;48.766;8.674;2022-07-21T14:14:50;3.88;;;3.47;;
10596;SDS011;5346;48.766;8.674;2022-07-21T14:17:24;4.13;;;3.72;;
10596;SDS011;5346;48.766;8.674;2022-07-21T14:19:52;5.13;;;3.78;;
10596;SDS011;5346;48.766;8.674;2022-07-21T14:22:20;4.20;;;3.80;;
10596;SDS011;5346;48.766;8.674;2022-07-21T14:24:54;4.57;;;4.00;;
10596;SDS011;5346;48.766;8.674;2022-07-21T14:27:40;6.80;;;4.18;;
10596;SDS011;5346;48.766;8.674;2022-07-21T14:30:15;4.10;;;3.60;;
10596;SDS011;5346;48.766;8.674;2022-07-21T14:32:44;4.63;;;3.95;;
10596;SDS011;5346;48.766;8.674;2022-07-21T14:35:13;6.32;;;3.75;;
10596;SDS011;5346;48.766;8.674;2022-07-21T14:37:50;3.75;;;3.45;;
10596;SDS011;5346;48.766;8.674;2022-07-21T14:40:18;5.30;;;3.75;;
10596;SDS011;5346;48.766;8.674;2022-07-21T14:42:47;4.13;;;3.72;;
10596;SDS011;5346;48.766;8.674;2022-07-21T14:45:24;4.07;;;3.67;;
10596;SDS011;5346;48.766;8.674;2022-07-21T14:47:53;5.43;;;3.50;;
10596;SDS011;5346;48.766;8.674;2022-07-21T14:50:23;3.70;;;3.40;;
10596;SDS011;5346;48.766;8.674;2022-07-21T14:52:58;3.83;;;3.53;;
10596;SDS011;5346;48.766;8.674;2022-07-21T14:55:26;4.15;;;3.80;;
10596;SDS011;5346;48.766;8.674;2022-07-21T14:57:55;4.00;;;3.40;;
10596;SDS011;5346;48.766;8.674;2022-07-21T15:00:43;4.55;;;3.80;;
10596;SDS011;5346;48.766;8.674;2022-07-21T15:03:11;4.55;;;3.45;;
10596;SDS011;5346;48.766;8.674;2022-07-21T15:05:46;4.57;;;3.80;;
10596;SDS011;5346;48.766;8.674;2022-07-21T15:08:14;4.53;;;3.35;;
10596;SDS011;5346;48.766;8.674;2022-07-21T15:10:43;4.10;;;3.40;;
10596;SDS011;5346;48.766;8.674;2022-07-21T15:13:18;4.63;;;3.70;;
10596;SDS011;5346;48.766;8.674;2022-07-21T15:15:46;5.85;;;3.40;;
10596;SDS011;5346;48.766;8.674;2022-07-21T15:18:13;6.57;;;3.83;;
10596;SDS011;5346;48.766;8.674;2022-07-21T15:20:48;4.68;;;3.97;;
10596;SDS011;5346;48.766;8.674;2022-07-21T15:23:16;5.10;;;3.90;;
10596;SDS011;5346;48.766;8.674;2022-07-21T15:25:43;4.53;;;4.13;;
10596;SDS011;5346;48.766;8.674;2022-07-21T15:28:17;3.75;;;3.45;;
10596;SDS011;5346;48.766;8.674;2022-07-21T15:30:45;3.63;;;3.33;;
10596;SDS011;5346;48.766;8.674;2022-07-21T15:33:13;4.30;;;3.90;;
10596;SDS011;5346;48.766;8.674;2022-07-21T15:35:47;5.78;;;3.55;;
10596;SDS011;5346;48.766;8.674;2022-07-21T15:38:20;5.28;;;4.00;;
10596;SDS011;5346;48.766;8.674;2022-07-21T15:40:57;4.90;;;4.15;;
10596;SDS011;5346;48.766;8.674;2022-07-21T15:43:24;4.57;;;3.70;;